sensor_id;sensor_type;location;lat;lon;timestamp;P1;durP1;ratioP1;P2;durP2;ratioP2
27957;SDS011;15295;42.658;23.374;2022-07-29T00:00:08;13.43;;;9.77;;
27957;SDS011;15295;42.658;23.374;2022-07-29T00:05:50;13.00;;;9.60;;
27957;SDS011;15295;42.658;23.374;2022-07-29T00:08:27;14.18;;;9.80;;
27957;SDS011;15295;42.658;23.374;2022-07-29T00:10:52;11.82;;;10.23;;
27957;SDS011;15295;42.658;23.374;2022-07-29T00:13:23;16.70;;;10.05;;
27957;SDS011;15295;42.658;23.374;2022-07-29T00:16:09;11.88;;;9.55;;
27957;SDS011;15295;42.658;23.374;2022-07-29T00:18:38;13.13;;;9.98;;
27957;SDS011;15295;42.658;23.374;2022-07-29T00:21:15;13.75;;;9.45;;
27957;SDS011;15295;42.658;23.374;2022-07-29T00:34:31;12.85;;;10.00;;
27957;SDS011;15295;42.658;23.374;2022-07-29T00:37:19;14.60;;;9.98;;
27957;SDS011;15295;42.658;23.374;2022-07-29T00:39:49;13.50;;;9.63;;
27957;SDS011;15295;42.658;23.374;2022-07-29T00:45:26;15.00;;;10.45;;
27957;SDS011;15295;42.658;23.374;2022-07-29T00:48:40;12.82;;;9.80;;
27957;SDS011;15295;42.658;23.374;2022-07-29T00:51:19;11.93;;;10.38;;
27957;SDS011;15295;42.658;23.374;2022-07-29T00:54:31;15.65;;;10.10;;
27957;SDS011;15295;42.658;23.374;2022-07-29T01:01:03;13.60;;;11.05;;
27957;SDS011;15295;42.658;23.374;2022-07-29T01:06:47;13.15;;;10.52;;
27957;SDS011;15295;42.658;23.374;2022-07-29T01:29:39;14.30;;;10.75;;
27957;SDS011;15295;42.658;23.374;2022-07-29T01:42:53;15.98;;;13.98;;
27957;SDS011;15295;42.658;23.374;2022-07-29T01:46:01;17.33;;;12.80;;
27957;SDS011;15295;42.658;23.374;2022-07-29T01:49:36;16.05;;;13.65;;
27957;SDS011;15295;42.658;23.374;2022-07-29T01:52:19;19.15;;;14.30;;
27957;SDS011;15295;42.658;23.374;2022-07-29T01:55:34;17.73;;;14.00;;
27957;SDS011;15295;42.658;23.374;2022-07-29T01:58:10;17.20;;;14.38;;
27957;SDS011;15295;42.658;23.374;2022-07-29T02:00:53;21.83;;;14.55;;
27957;SDS011;15295;42.658;23.374;2022-07-29T02:03:21;16.65;;;13.20;;
27957;SDS011;15295;42.658;23.374;2022-07-29T02:06:18;17.75;;;12.43;;
27957;SDS011;15295;42.658;23.374;2022-07-29T02:09:15;18.42;;;12.63;;
27957;SDS011;15295;42.658;23.374;2022-07-29T02:12:54;16.52;;;13.10;;
27957;SDS011;15295;42.658;23.374;2022-07-29T02:15:54;17.60;;;10.50;;
27957;SDS011;15295;42.658;23.374;2022-07-29T02:19:09;15.68;;;10.43;;
27957;SDS011;15295;42.658;23.374;2022-07-29T02:21:41;10.70;;;9.60;;
27957;SDS011;15295;42.658;23.374;2022-07-29T02:24:22;13.45;;;9.27;;
27957;SDS011;15295;42.658;23.374;2022-07-29T02:27:34;15.18;;;9.13;;
27957;SDS011;15295;42.658;23.374;2022-07-29T02:30:29;12.57;;;8.05;;
27957;SDS011;15295;42.658;23.374;2022-07-29T02:33:26;17.70;;;9.25;;
27957;SDS011;15295;42.658;23.374;2022-07-29T02:36:34;16.60;;;9.63;;
27957;SDS011;15295;42.658;23.374;2022-07-29T02:39:38;13.35;;;9.25;;
27957;SDS011;15295;42.658;23.374;2022-07-29T02:42:47;13.93;;;9.63;;
27957;SDS011;15295;42.658;23.374;2022-07-29T02:45:32;13.30;;;9.18;;
27957;SDS011;15295;42.658;23.374;2022-07-29T02:48:25;10.80;;;8.73;;
27957;SDS011;15295;42.658;23.374;2022-07-29T02:51:45;11.02;;;8.43;;
27957;SDS011;15295;42.658;23.374;2022-07-29T03:01:03;13.05;;;9.35;;
27957;SDS011;15295;42.658;23.374;2022-07-29T03:04:23;12.73;;;8.27;;
27957;SDS011;15295;42.658;23.374;2022-07-29T03:07:11;13.93;;;8.63;;
27957;SDS011;15295;42.658;23.374;2022-07-29T03:13:03;14.45;;;9.75;;
27957;SDS011;15295;42.658;23.374;2022-07-29T03:16:13;13.55;;;9.10;;
27957;SDS011;15295;42.658;23.374;2022-07-29T03:19:42;13.73;;;9.35;;
27957;SDS011;15295;42.658;23.374;2022-07-29T03:22:19;14.05;;;10.40;;
27957;SDS011;15295;42.658;23.374;2022-07-29T03:25:32;17.05;;;12.15;;
27957;SDS011;15295;42.658;23.374;2022-07-29T03:28:32;15.40;;;11.10;;
27957;SDS011;15295;42.658;23.374;2022-07-29T03:31:39;16.77;;;12.68;;
27957;SDS011;15295;42.658;23.374;2022-07-29T03:34:31;20.20;;;13.57;;
27957;SDS011;15295;42.658;23.374;2022-07-29T03:37:26;17.63;;;13.48;;
27957;SDS011;15295;42.658;23.374;2022-07-29T03:40:02;21.33;;;14.60;;
27957;SDS011;15295;42.658;23.374;2022-07-29T03:42:46;23.77;;;16.75;;
27957;SDS011;15295;42.658;23.374;2022-07-29T03:45:41;16.85;;;15.02;;
27957;SDS011;15295;42.658;23.374;2022-07-29T03:48:24;25.15;;;16.15;;
27957;SDS011;15295;42.658;23.374;2022-07-29T03:51:35;22.27;;;16.42;;
27957;SDS011;15295;42.658;23.374;2022-07-29T03:54:13;22.38;;;16.98;;
27957;SDS011;15295;42.658;23.374;2022-07-29T03:57:12;27.63;;;15.77;;
27957;SDS011;15295;42.658;23.374;2022-07-29T04:00:36;21.10;;;15.93;;
27957;SDS011;15295;42.658;23.374;2022-07-29T04:03:31;20.35;;;14.68;;
27957;SDS011;15295;42.658;23.374;2022-07-29T04:10:08;20.92;;;15.10;;
27957;SDS011;15295;42.658;23.374;2022-07-29T04:13:20;21.75;;;15.18;;
27957;SDS011;15295;42.658;23.374;2022-07-29T04:25:24;19.77;;;12.18;;
27957;SDS011;15295;42.658;23.374;2022-07-29T04:28:16;20.48;;;12.77;;
27957;SDS011;15295;42.658;23.374;2022-07-29T04:32:05;14.82;;;11.88;;
27957;SDS011;15295;42.658;23.374;2022-07-29T04:35:20;13.73;;;10.40;;
27957;SDS011;15295;42.658;23.374;2022-07-29T04:38:18;17.45;;;9.98;;
27957;SDS011;15295;42.658;23.374;2022-07-29T04:40:55;15.70;;;10.15;;
27957;SDS011;15295;42.658;23.374;2022-07-29T04:44:05;13.93;;;10.18;;
27957;SDS011;15295;42.658;23.374;2022-07-29T04:46:50;16.70;;;8.43;;
27957;SDS011;15295;42.658;23.374;2022-07-29T04:49:27;12.52;;;8.65;;
27957;SDS011;15295;42.658;23.374;2022-07-29T04:56:19;11.32;;;9.13;;
27957;SDS011;15295;42.658;23.374;2022-07-29T04:59:24;14.20;;;8.93;;
27957;SDS011;15295;42.658;23.374;2022-07-29T05:02:02;16.15;;;9.52;;
27957;SDS011;15295;42.658;23.374;2022-07-29T05:08:29;24.55;;;13.13;;
27957;SDS011;15295;42.658;23.374;2022-07-29T05:10:56;12.90;;;10.45;;
27957;SDS011;15295;42.658;23.374;2022-07-29T05:13:43;39.03;;;19.80;;
27957;SDS011;15295;42.658;23.374;2022-07-29T05:16:57;15.77;;;10.45;;
27957;SDS011;15295;42.658;23.374;2022-07-29T05:22:37;27.15;;;16.45;;
27957;SDS011;15295;42.658;23.374;2022-07-29T05:28:51;18.75;;;10.85;;
27957;SDS011;15295;42.658;23.374;2022-07-29T05:32:07;13.10;;;10.23;;
27957;SDS011;15295;42.658;23.374;2022-07-29T05:34:38;21.58;;;12.07;;
27957;SDS011;15295;42.658;23.374;2022-07-29T05:37:48;14.88;;;10.85;;
27957;SDS011;15295;42.658;23.374;2022-07-29T05:41:04;17.85;;;10.25;;
27957;SDS011;15295;42.658;23.374;2022-07-29T05:43:54;11.80;;;9.68;;
27957;SDS011;15295;42.658;23.374;2022-07-29T05:47:01;102.20;;;32.47;;
27957;SDS011;15295;42.658;23.374;2022-07-29T05:49:41;48.55;;;18.95;;
27957;SDS011;15295;42.658;23.374;2022-07-29T05:52:10;118.55;;;37.28;;
27957;SDS011;15295;42.658;23.374;2022-07-29T05:55:12;44.63;;;17.95;;
27957;SDS011;15295;42.658;23.374;2022-07-29T05:57:43;34.55;;;13.68;;
27957;SDS011;15295;42.658;23.374;2022-07-29T06:00:23;15.68;;;9.23;;
27957;SDS011;15295;42.658;23.374;2022-07-29T06:03:45;16.42;;;10.60;;
27957;SDS011;15295;42.658;23.374;2022-07-29T06:06:57;17.35;;;10.38;;
27957;SDS011;15295;42.658;23.374;2022-07-29T06:09:30;14.30;;;9.52;;
27957;SDS011;15295;42.658;23.374;2022-07-29T06:12:12;10.95;;;8.13;;
27957;SDS011;15295;42.658;23.374;2022-07-29T06:15:20;13.88;;;9.43;;
27957;SDS011;15295;42.658;23.374;2022-07-29T06:18:10;12.98;;;8.32;;
27957;SDS011;15295;42.658;23.374;2022-07-29T06:21:25;19.52;;;13.00;;
27957;SDS011;15295;42.658;23.374;2022-07-29T06:24:10;21.02;;;12.25;;
27957;SDS011;15295;42.658;23.374;2022-07-29T06:26:45;22.33;;;12.70;;
27957;SDS011;15295;42.658;23.374;2022-07-29T06:29:11;16.73;;;10.48;;
27957;SDS011;15295;42.658;23.374;2022-07-29T06:31:40;13.30;;;9.20;;
27957;SDS011;15295;42.658;23.374;2022-07-29T06:34:44;14.40;;;8.65;;
27957;SDS011;15295;42.658;23.374;2022-07-29T06:37:24;10.63;;;9.02;;
27957;SDS011;15295;42.658;23.374;2022-07-29T06:39:54;33.90;;;15.82;;
27957;SDS011;15295;42.658;23.374;2022-07-29T06:42:47;10.30;;;8.18;;
27957;SDS011;15295;42.658;23.374;2022-07-29T06:45:55;16.00;;;9.90;;
27957;SDS011;15295;42.658;23.374;2022-07-29T06:48:28;11.52;;;7.85;;
27957;SDS011;15295;42.658;23.374;2022-07-29T06:51:19;13.43;;;8.43;;
27957;SDS011;15295;42.658;23.374;2022-07-29T06:54:16;9.70;;;7.20;;
27957;SDS011;15295;42.658;23.374;2022-07-29T06:56:52;15.00;;;7.50;;
27957;SDS011;15295;42.658;23.374;2022-07-29T06:59:27;13.23;;;6.93;;
27957;SDS011;15295;42.658;23.374;2022-07-29T07:01:53;13.43;;;7.13;;
27957;SDS011;15295;42.658;23.374;2022-07-29T07:04:25;10.85;;;7.10;;
27957;SDS011;15295;42.658;23.374;2022-07-29T07:07:35;13.60;;;7.57;;
27957;SDS011;15295;42.658;23.374;2022-07-29T07:10:30;15.18;;;10.52;;
27957;SDS011;15295;42.658;23.374;2022-07-29T07:13:38;7.43;;;6.07;;
27957;SDS011;15295;42.658;23.374;2022-07-29T07:16:19;7.72;;;6.18;;
27957;SDS011;15295;42.658;23.374;2022-07-29T07:19:16;12.82;;;5.57;;
27957;SDS011;15295;42.658;23.374;2022-07-29T07:22:02;6.07;;;5.32;;
27957;SDS011;15295;42.658;23.374;2022-07-29T07:25:01;11.63;;;5.47;;
27957;SDS011;15295;42.658;23.374;2022-07-29T07:28:15;7.50;;;5.67;;
27957;SDS011;15295;42.658;23.374;2022-07-29T07:31:12;11.40;;;5.80;;
27957;SDS011;15295;42.658;23.374;2022-07-29T07:34:20;7.03;;;4.65;;
27957;SDS011;15295;42.658;23.374;2022-07-29T07:37:38;7.95;;;5.15;;
27957;SDS011;15295;42.658;23.374;2022-07-29T07:40:13;12.23;;;6.97;;
27957;SDS011;15295;42.658;23.374;2022-07-29T07:43:05;7.75;;;5.50;;
27957;SDS011;15295;42.658;23.374;2022-07-29T07:46:14;13.13;;;8.38;;
27957;SDS011;15295;42.658;23.374;2022-07-29T07:48:43;5.97;;;4.75;;
27957;SDS011;15295;42.658;23.374;2022-07-29T07:51:18;6.88;;;5.20;;
27957;SDS011;15295;42.658;23.374;2022-07-29T07:54:27;8.63;;;6.28;;
27957;SDS011;15295;42.658;23.374;2022-07-29T07:56:53;10.68;;;6.53;;
27957;SDS011;15295;42.658;23.374;2022-07-29T07:59:28;8.13;;;5.33;;
27957;SDS011;15295;42.658;23.374;2022-07-29T08:02:31;6.20;;;5.10;;
27957;SDS011;15295;42.658;23.374;2022-07-29T08:05:02;13.80;;;7.78;;
27957;SDS011;15295;42.658;23.374;2022-07-29T08:08:33;7.43;;;5.85;;
27957;SDS011;15295;42.658;23.374;2022-07-29T08:11:20;6.60;;;4.57;;
27957;SDS011;15295;42.658;23.374;2022-07-29T08:17:23;6.57;;;5.20;;
27957;SDS011;15295;42.658;23.374;2022-07-29T08:20:15;4.65;;;3.92;;
27957;SDS011;15295;42.658;23.374;2022-07-29T08:23:04;6.65;;;4.40;;
27957;SDS011;15295;42.658;23.374;2022-07-29T08:26:41;5.32;;;3.95;;
27957;SDS011;15295;42.658;23.374;2022-07-29T08:29:26;7.22;;;4.18;;
27957;SDS011;15295;42.658;23.374;2022-07-29T08:32:09;7.40;;;4.13;;
27957;SDS011;15295;42.658;23.374;2022-07-29T08:35:12;7.15;;;3.35;;
27957;SDS011;15295;42.658;23.374;2022-07-29T08:37:55;6.38;;;3.70;;
27957;SDS011;15295;42.658;23.374;2022-07-29T08:40:33;8.43;;;3.38;;
27957;SDS011;15295;42.658;23.374;2022-07-29T08:44:15;7.00;;;3.65;;
27957;SDS011;15295;42.658;23.374;2022-07-29T08:46:42;6.25;;;3.88;;
27957;SDS011;15295;42.658;23.374;2022-07-29T08:49:08;5.30;;;3.47;;
27957;SDS011;15295;42.658;23.374;2022-07-29T08:51:47;3.42;;;3.08;;
27957;SDS011;15295;42.658;23.374;2022-07-29T08:54:16;6.50;;;4.00;;
27957;SDS011;15295;42.658;23.374;2022-07-29T08:56:50;3.65;;;3.15;;
27957;SDS011;15295;42.658;23.374;2022-07-29T08:59:18;4.43;;;3.35;;
27957;SDS011;15295;42.658;23.374;2022-07-29T09:01:47;3.72;;;3.35;;
27957;SDS011;15295;42.658;23.374;2022-07-29T09:04:46;5.75;;;4.00;;
27957;SDS011;15295;42.658;23.374;2022-07-29T09:07:17;4.90;;;4.40;;
27957;SDS011;15295;42.658;23.374;2022-07-29T09:09:56;5.65;;;3.58;;
27957;SDS011;15295;42.658;23.374;2022-07-29T09:16:16;7.72;;;3.40;;
27957;SDS011;15295;42.658;23.374;2022-07-29T09:19:45;4.65;;;3.78;;
27957;SDS011;15295;42.658;23.374;2022-07-29T09:23:22;6.05;;;4.10;;
27957;SDS011;15295;42.658;23.374;2022-07-29T09:26:44;8.07;;;4.28;;
27957;SDS011;15295;42.658;23.374;2022-07-29T09:30:06;5.43;;;4.30;;
27957;SDS011;15295;42.658;23.374;2022-07-29T09:37:02;6.82;;;4.45;;
27957;SDS011;15295;42.658;23.374;2022-07-29T09:40:09;6.75;;;4.90;;
27957;SDS011;15295;42.658;23.374;2022-07-29T09:43:20;5.20;;;4.57;;
27957;SDS011;15295;42.658;23.374;2022-07-29T09:46:17;7.38;;;4.80;;
27957;SDS011;15295;42.658;23.374;2022-07-29T09:49:11;4.88;;;3.90;;
27957;SDS011;15295;42.658;23.374;2022-07-29T09:51:44;5.90;;;4.05;;
27957;SDS011;15295;42.658;23.374;2022-07-29T09:54:27;6.90;;;4.45;;
27957;SDS011;15295;42.658;23.374;2022-07-29T09:57:06;6.85;;;4.25;;
27957;SDS011;15295;42.658;23.374;2022-07-29T10:03:04;11.00;;;4.40;;
27957;SDS011;15295;42.658;23.374;2022-07-29T10:05:35;7.35;;;4.18;;
27957;SDS011;15295;42.658;23.374;2022-07-29T10:08:48;5.50;;;3.72;;
27957;SDS011;15295;42.658;23.374;2022-07-29T10:12:01;7.20;;;4.22;;
27957;SDS011;15295;42.658;23.374;2022-07-29T10:15:07;5.20;;;3.90;;
27957;SDS011;15295;42.658;23.374;2022-07-29T10:18:32;6.10;;;4.13;;
27957;SDS011;15295;42.658;23.374;2022-07-29T10:21:43;6.60;;;4.68;;
27957;SDS011;15295;42.658;23.374;2022-07-29T10:25:02;7.75;;;4.90;;
27957;SDS011;15295;42.658;23.374;2022-07-29T10:27:50;4.90;;;4.15;;
27957;SDS011;15295;42.658;23.374;2022-07-29T10:33:17;3.97;;;3.53;;
27957;SDS011;15295;42.658;23.374;2022-07-29T10:42:22;6.53;;;3.85;;
27957;SDS011;15295;42.658;23.374;2022-07-29T10:45:42;5.68;;;4.30;;
27957;SDS011;15295;42.658;23.374;2022-07-29T10:52:11;5.95;;;3.83;;
27957;SDS011;15295;42.658;23.374;2022-07-29T10:54:43;5.70;;;4.05;;
27957;SDS011;15295;42.658;23.374;2022-07-29T10:57:31;4.40;;;3.78;;
27957;SDS011;15295;42.658;23.374;2022-07-29T11:00:31;8.60;;;3.92;;
27957;SDS011;15295;42.658;23.374;2022-07-29T11:06:23;4.88;;;3.58;;
27957;SDS011;15295;42.658;23.374;2022-07-29T11:09:22;5.77;;;4.00;;
27957;SDS011;15295;42.658;23.374;2022-07-29T11:11:50;11.68;;;8.50;;
27957;SDS011;15295;42.658;23.374;2022-07-29T11:23:31;4.35;;;3.95;;
27957;SDS011;15295;42.658;23.374;2022-07-29T11:26:14;10.48;;;5.40;;
27957;SDS011;15295;42.658;23.374;2022-07-29T11:32:23;5.00;;;4.07;;
27957;SDS011;15295;42.658;23.374;2022-07-29T11:35:35;6.63;;;4.25;;
27957;SDS011;15295;42.658;23.374;2022-07-29T11:39:25;5.28;;;4.25;;
27957;SDS011;15295;42.658;23.374;2022-07-29T11:42:49;7.38;;;3.88;;
27957;SDS011;15295;42.658;23.374;2022-07-29T11:45:56;7.10;;;4.10;;
27957;SDS011;15295;42.658;23.374;2022-07-29T11:49:24;7.47;;;4.68;;
27957;SDS011;15295;42.658;23.374;2022-07-29T11:52:17;6.82;;;4.40;;
27957;SDS011;15295;42.658;23.374;2022-07-29T11:54:47;5.05;;;4.15;;
27957;SDS011;15295;42.658;23.374;2022-07-29T11:57:16;5.30;;;4.40;;
27957;SDS011;15295;42.658;23.374;2022-07-29T12:00:00;6.70;;;4.55;;
27957;SDS011;15295;42.658;23.374;2022-07-29T12:02:45;6.15;;;4.75;;
27957;SDS011;15295;42.658;23.374;2022-07-29T12:05:34;16.75;;;9.90;;
27957;SDS011;15295;42.658;23.374;2022-07-29T12:09:17;6.03;;;4.80;;
27957;SDS011;15295;42.658;23.374;2022-07-29T12:12:50;5.13;;;4.63;;
27957;SDS011;15295;42.658;23.374;2022-07-29T12:15:27;6.22;;;4.63;;
27957;SDS011;15295;42.658;23.374;2022-07-29T12:19:01;6.03;;;5.00;;
27957;SDS011;15295;42.658;23.374;2022-07-29T12:22:07;6.22;;;5.10;;
27957;SDS011;15295;42.658;23.374;2022-07-29T12:24:50;7.60;;;5.35;;
27957;SDS011;15295;42.658;23.374;2022-07-29T12:33:35;6.72;;;5.80;;
27957;SDS011;15295;42.658;23.374;2022-07-29T12:36:15;7.85;;;6.57;;
27957;SDS011;15295;42.658;23.374;2022-07-29T12:39:04;7.90;;;5.22;;
27957;SDS011;15295;42.658;23.374;2022-07-29T12:42:10;6.55;;;5.82;;
27957;SDS011;15295;42.658;23.374;2022-07-29T12:45:09;7.00;;;5.97;;
27957;SDS011;15295;42.658;23.374;2022-07-29T12:48:05;7.30;;;6.15;;
27957;SDS011;15295;42.658;23.374;2022-07-29T12:51:13;9.48;;;6.30;;
27957;SDS011;15295;42.658;23.374;2022-07-29T12:54:13;6.22;;;5.45;;
27957;SDS011;15295;42.658;23.374;2022-07-29T12:57:28;8.07;;;6.07;;
27957;SDS011;15295;42.658;23.374;2022-07-29T13:00:30;11.75;;;5.80;;
27957;SDS011;15295;42.658;23.374;2022-07-29T13:03:26;7.00;;;5.32;;
27957;SDS011;15295;42.658;23.374;2022-07-29T13:05:58;6.85;;;5.50;;
27957;SDS011;15295;42.658;23.374;2022-07-29T13:11:44;7.40;;;5.03;;
27957;SDS011;15295;42.658;23.374;2022-07-29T13:14:43;6.85;;;5.05;;
27957;SDS011;15295;42.658;23.374;2022-07-29T13:17:41;9.48;;;5.20;;
27957;SDS011;15295;42.658;23.374;2022-07-29T13:20:15;6.28;;;5.68;;
27957;SDS011;15295;42.658;23.374;2022-07-29T13:23:17;8.25;;;6.53;;
27957;SDS011;15295;42.658;23.374;2022-07-29T13:32:09;6.95;;;4.97;;
27957;SDS011;15295;42.658;23.374;2022-07-29T13:34:59;10.50;;;5.60;;
27957;SDS011;15295;42.658;23.374;2022-07-29T13:38:01;10.48;;;6.00;;
27957;SDS011;15295;42.658;23.374;2022-07-29T13:40:33;6.85;;;6.07;;
27957;SDS011;15295;42.658;23.374;2022-07-29T13:46:13;9.20;;;6.68;;
27957;SDS011;15295;42.658;23.374;2022-07-29T13:48:59;9.60;;;6.23;;
27957;SDS011;15295;42.658;23.374;2022-07-29T13:52:08;7.07;;;5.68;;
27957;SDS011;15295;42.658;23.374;2022-07-29T13:55:23;9.73;;;7.00;;
27957;SDS011;15295;42.658;23.374;2022-07-29T13:58:31;7.43;;;5.07;;
27957;SDS011;15295;42.658;23.374;2022-07-29T14:01:33;7.30;;;5.75;;
27957;SDS011;15295;42.658;23.374;2022-07-29T14:04:18;10.60;;;7.90;;
27957;SDS011;15295;42.658;23.374;2022-07-29T14:07:55;8.02;;;6.00;;
27957;SDS011;15295;42.658;23.374;2022-07-29T14:10:48;7.60;;;5.88;;
27957;SDS011;15295;42.658;23.374;2022-07-29T14:13:53;7.13;;;5.55;;
27957;SDS011;15295;42.658;23.374;2022-07-29T14:17:03;6.18;;;5.55;;
27957;SDS011;15295;42.658;23.374;2022-07-29T14:19:46;10.23;;;5.53;;
27957;SDS011;15295;42.658;23.374;2022-07-29T14:22:45;6.05;;;5.28;;
27957;SDS011;15295;42.658;23.374;2022-07-29T14:25:40;6.15;;;5.55;;
27957;SDS011;15295;42.658;23.374;2022-07-29T14:28:12;8.40;;;6.00;;
27957;SDS011;15295;42.658;23.374;2022-07-29T14:30:40;5.88;;;5.13;;
27957;SDS011;15295;42.658;23.374;2022-07-29T14:33:35;6.28;;;5.68;;
27957;SDS011;15295;42.658;23.374;2022-07-29T14:36:22;5.95;;;5.35;;
27957;SDS011;15295;42.658;23.374;2022-07-29T14:38:58;6.53;;;5.80;;
27957;SDS011;15295;42.658;23.374;2022-07-29T14:42:09;6.30;;;5.70;;
27957;SDS011;15295;42.658;23.374;2022-07-29T14:45:06;7.88;;;5.55;;
27957;SDS011;15295;42.658;23.374;2022-07-29T14:47:42;6.80;;;5.65;;
27957;SDS011;15295;42.658;23.374;2022-07-29T14:50:24;7.90;;;5.40;;
27957;SDS011;15295;42.658;23.374;2022-07-29T14:52:54;9.02;;;7.10;;
27957;SDS011;15295;42.658;23.374;2022-07-29T14:55:21;8.27;;;6.68;;
27957;SDS011;15295;42.658;23.374;2022-07-29T14:57:48;8.18;;;7.30;;
27957;SDS011;15295;42.658;23.374;2022-07-29T15:00:15;11.25;;;7.43;;
27957;SDS011;15295;42.658;23.374;2022-07-29T15:02:48;8.60;;;6.82;;
27957;SDS011;15295;42.658;23.374;2022-07-29T15:05:19;7.00;;;6.20;;
27957;SDS011;15295;42.658;23.374;2022-07-29T15:08:13;9.25;;;6.25;;
27957;SDS011;15295;42.658;23.374;2022-07-29T15:10:50;8.55;;;6.05;;
27957;SDS011;15295;42.658;23.374;2022-07-29T15:13:32;8.00;;;6.00;;
27957;SDS011;15295;42.658;23.374;2022-07-29T15:16:07;5.82;;;5.25;;
27957;SDS011;15295;42.658;23.374;2022-07-29T15:19:13;6.30;;;5.70;;
27957;SDS011;15295;42.658;23.374;2022-07-29T15:21:41;8.43;;;5.60;;
27957;SDS011;15295;42.658;23.374;2022-07-29T15:26:58;6.55;;;5.82;;
27957;SDS011;15295;42.658;23.374;2022-07-29T15:29:28;9.40;;;5.57;;
27957;SDS011;15295;42.658;23.374;2022-07-29T15:31:57;8.07;;;5.20;;
27957;SDS011;15295;42.658;23.374;2022-07-29T15:34:38;6.60;;;5.43;;
27957;SDS011;15295;42.658;23.374;2022-07-29T15:37:19;6.93;;;5.10;;
27957;SDS011;15295;42.658;23.374;2022-07-29T15:39:59;9.10;;;5.15;;
27957;SDS011;15295;42.658;23.374;2022-07-29T15:42:48;5.95;;;4.40;;
27957;SDS011;15295;42.658;23.374;2022-07-29T15:45:36;5.47;;;4.60;;
27957;SDS011;15295;42.658;23.374;2022-07-29T15:54:05;6.38;;;5.55;;
27957;SDS011;15295;42.658;23.374;2022-07-29T15:56:57;7.82;;;5.80;;
27957;SDS011;15295;42.658;23.374;2022-07-29T15:59:27;7.57;;;5.05;;
27957;SDS011;15295;42.658;23.374;2022-07-29T16:02:27;17.85;;;9.48;;
27957;SDS011;15295;42.658;23.374;2022-07-29T16:07:38;13.10;;;7.82;;
27957;SDS011;15295;42.658;23.374;2022-07-29T16:10:11;21.35;;;11.73;;
27957;SDS011;15295;42.658;23.374;2022-07-29T16:12:38;7.18;;;5.57;;
27957;SDS011;15295;42.658;23.374;2022-07-29T16:15:18;6.30;;;5.30;;
27957;SDS011;15295;42.658;23.374;2022-07-29T16:18:01;6.15;;;5.03;;
27957;SDS011;15295;42.658;23.374;2022-07-29T16:23:38;6.00;;;5.40;;
27957;SDS011;15295;42.658;23.374;2022-07-29T16:29:09;6.05;;;5.15;;
27957;SDS011;15295;42.658;23.374;2022-07-29T16:32:14;6.95;;;5.57;;
27957;SDS011;15295;42.658;23.374;2022-07-29T16:34:59;6.82;;;5.50;;
27957;SDS011;15295;42.658;23.374;2022-07-29T16:37:34;7.68;;;5.20;;
27957;SDS011;15295;42.658;23.374;2022-07-29T16:40:26;6.88;;;5.22;;
27957;SDS011;15295;42.658;23.374;2022-07-29T16:43:11;8.15;;;5.63;;
27957;SDS011;15295;42.658;23.374;2022-07-29T16:45:50;6.88;;;6.05;;
27957;SDS011;15295;42.658;23.374;2022-07-29T16:48:37;10.02;;;5.60;;
27957;SDS011;15295;42.658;23.374;2022-07-29T16:51:22;9.95;;;6.32;;
27957;SDS011;15295;42.658;23.374;2022-07-29T16:53:50;11.70;;;6.30;;
27957;SDS011;15295;42.658;23.374;2022-07-29T16:56:45;10.20;;;7.47;;
27957;SDS011;15295;42.658;23.374;2022-07-29T16:59:43;8.95;;;7.07;;
27957;SDS011;15295;42.658;23.374;2022-07-29T17:02:39;13.30;;;8.13;;
27957;SDS011;15295;42.658;23.374;2022-07-29T17:05:11;11.88;;;7.38;;
27957;SDS011;15295;42.658;23.374;2022-07-29T17:07:51;7.00;;;5.25;;
27957;SDS011;15295;42.658;23.374;2022-07-29T17:10:17;9.23;;;5.82;;
27957;SDS011;15295;42.658;23.374;2022-07-29T17:12:49;11.50;;;6.30;;
27957;SDS011;15295;42.658;23.374;2022-07-29T17:15:32;9.52;;;6.40;;
27957;SDS011;15295;42.658;23.374;2022-07-29T17:18:13;7.00;;;5.43;;
27957;SDS011;15295;42.658;23.374;2022-07-29T17:21:31;7.93;;;5.50;;
27957;SDS011;15295;42.658;23.374;2022-07-29T17:24:10;9.70;;;5.55;;
27957;SDS011;15295;42.658;23.374;2022-07-29T17:26:54;8.73;;;6.27;;
27957;SDS011;15295;42.658;23.374;2022-07-29T17:29:23;7.28;;;5.30;;
27957;SDS011;15295;42.658;23.374;2022-07-29T17:32:14;6.70;;;5.07;;
27957;SDS011;15295;42.658;23.374;2022-07-29T17:35:05;11.63;;;5.70;;
27957;SDS011;15295;42.658;23.374;2022-07-29T17:38:15;9.20;;;5.00;;
27957;SDS011;15295;42.658;23.374;2022-07-29T17:41:07;6.28;;;5.65;;
27957;SDS011;15295;42.658;23.374;2022-07-29T17:43:37;7.90;;;5.95;;
27957;SDS011;15295;42.658;23.374;2022-07-29T17:46:06;11.18;;;5.40;;
27957;SDS011;15295;42.658;23.374;2022-07-29T17:52:25;6.10;;;5.50;;
27957;SDS011;15295;42.658;23.374;2022-07-29T17:55:32;7.88;;;5.57;;
27957;SDS011;15295;42.658;23.374;2022-07-29T17:58:25;8.73;;;5.53;;
27957;SDS011;15295;42.658;23.374;2022-07-29T18:01:42;6.30;;;5.30;;
27957;SDS011;15295;42.658;23.374;2022-07-29T18:07:38;11.15;;;4.97;;
27957;SDS011;15295;42.658;23.374;2022-07-29T18:10:29;9.05;;;5.43;;
27957;SDS011;15295;42.658;23.374;2022-07-29T18:13:29;6.95;;;5.30;;
27957;SDS011;15295;42.658;23.374;2022-07-29T18:16:20;5.47;;;4.88;;
27957;SDS011;15295;42.658;23.374;2022-07-29T18:22:36;5.82;;;5.22;;
27957;SDS011;15295;42.658;23.374;2022-07-29T18:25:34;7.75;;;5.63;;
27957;SDS011;15295;42.658;23.374;2022-07-29T18:28:32;7.90;;;5.15;;
27957;SDS011;15295;42.658;23.374;2022-07-29T18:31:31;6.78;;;5.60;;
27957;SDS011;15295;42.658;23.374;2022-07-29T18:34:11;6.22;;;5.07;;
27957;SDS011;15295;42.658;23.374;2022-07-29T18:36:56;7.80;;;5.30;;
27957;SDS011;15295;42.658;23.374;2022-07-29T18:39:29;7.40;;;5.22;;
27957;SDS011;15295;42.658;23.374;2022-07-29T18:42:02;7.32;;;5.25;;
27957;SDS011;15295;42.658;23.374;2022-07-29T18:44:44;6.93;;;5.30;;
27957;SDS011;15295;42.658;23.374;2022-07-29T18:47:11;7.22;;;5.78;;
27957;SDS011;15295;42.658;23.374;2022-07-29T18:49:37;9.82;;;5.45;;
27957;SDS011;15295;42.658;23.374;2022-07-29T18:52:09;11.55;;;5.57;;
27957;SDS011;15295;42.658;23.374;2022-07-29T18:54:48;8.57;;;5.63;;
27957;SDS011;15295;42.658;23.374;2022-07-29T18:57:27;9.35;;;5.22;;
27957;SDS011;15295;42.658;23.374;2022-07-29T19:00:24;8.30;;;4.97;;
27957;SDS011;15295;42.658;23.374;2022-07-29T19:03:00;10.20;;;5.75;;
27957;SDS011;15295;42.658;23.374;2022-07-29T19:05:41;9.10;;;5.32;;
27957;SDS011;15295;42.658;23.374;2022-07-29T19:08:08;9.20;;;5.10;;
27957;SDS011;15295;42.658;23.374;2022-07-29T19:10:41;10.85;;;5.28;;
27957;SDS011;15295;42.658;23.374;2022-07-29T19:13:40;8.82;;;5.18;;
27957;SDS011;15295;42.658;23.374;2022-07-29T19:16:31;7.25;;;4.82;;
27957;SDS011;15295;42.658;23.374;2022-07-29T19:19:10;8.90;;;5.60;;
27957;SDS011;15295;42.658;23.374;2022-07-29T19:21:55;9.85;;;5.75;;
27957;SDS011;15295;42.658;23.374;2022-07-29T19:24:59;6.22;;;5.60;;
27957;SDS011;15295;42.658;23.374;2022-07-29T19:27:25;9.00;;;5.43;;
27957;SDS011;15295;42.658;23.374;2022-07-29T19:29:55;8.50;;;5.32;;
27957;SDS011;15295;42.658;23.374;2022-07-29T20:01:06;5.45;;;4.60;;
27957;SDS011;15295;42.658;23.374;2022-07-29T20:04:08;7.82;;;4.80;;
27957;SDS011;15295;42.658;23.374;2022-07-29T20:15:08;8.60;;;5.32;;
27957;SDS011;15295;42.658;23.374;2022-07-29T20:21:08;5.60;;;4.85;;